Aeroporto :
LOGIN :

Iscrizione | Disclaimer

   EN    FR    IT 

 










Sommario :    VFR   VFR Marginale   IFR   IFR Intensivo   IFR Molto Intensivo
Visibilità : 
Base nubi : 
>= 8 km
>= 3000ft
5 / 8 km
1000 / 3000 ft
1500m / 5 km
500 / 1000 ft
800 / 1500m
200 / 500 ft
< 800m
< 200 ft
Simboli :   Temporali  Nebbia  Neve Forte  Precipitazioni Forti  Vento > 20 kt
SIGMETs :   Varie  Temporali  Ghiacco  Turbolenza  Onda orograficha  Ceneri Vulcaniche







- Altitudine del aeroporto : 102 ft
- Codice IATA : CNG
- Carte del aeroporto


LFBG - Cognac

ULTIMO METAR :
  • 210500Z AUTO 26002KT 0300 0250 R23/0350N FG VV/// 09/09 Q1017 NOSIG

METARs OBSOLETI :
  • 210430Z AUTO 00000KT 0250 0200 R23/M0200D FG VV/// 09/09 Q1017
  • 210400Z AUTO 00000KT 0400 0350 R23/0400N FG VV/// 09/09 Q1017
  • 210330Z AUTO 00000KT 3700 0450 R23/0550U BCFG VV/// 09/08 Q1016
  • 210300Z AUTO 00000KT 2100 0450 R23/0300D BCFG VV/// 08/07 Q1016
  • 210230Z AUTO 00000KT 4800 0500 R23/0450D BCFG BKN003 10/09 Q1016

TAF TAF LFBG
Valido dal 21 a 03 ore il 22 a 03 ore UTC


210200Z 2103/2203 VRB02KT 0200 FG VV///
BECMG 2107/2109 9999 NSW SCT010
BECMG 2110/2112 BKN020
TEMPO 2111/2118 -SHRA FEW020CB SCT020TCU
BECMG 2200/2202 0400 FG
Nessun NOTAM noto per questo aeroporto.



MetMap, La meteo Aeronautica in un colpo d'occhio ! - Copyright ORBIFLY Dicembre 2007 - Disclaimer

ORBIFLY MET'MAP TEAM :

Programmazione e sviluppo : Alexandra Zaïnal
Concezione e sviluppo : Baudouin d'Aumeries
Co-Programmazione e sviluppo : Marc-Olivier Méhu
Supporto tecnico e logistico : Manuel Goepfert
Aiuto per la traduzione : Arnaldo La Scala

Contatto : metmap@orbifly.com




FONTI E CREDITI :

   NOAA